createdAt,value
2019-06-26T00:00:22.294Z,13.83
2019-06-26T00:02:49.178Z,13.25
2019-06-26T00:05:16.096Z,13.93
2019-06-26T00:07:43.200Z,13.25
2019-06-26T00:10:10.244Z,15.05
2019-06-26T00:12:37.149Z,13.80
2019-06-26T00:15:05.691Z,14.15
2019-06-26T00:17:57.559Z,13.35
2019-06-26T00:20:24.544Z,14.98
2019-06-26T00:22:51.462Z,13.03
2019-06-26T00:25:20.526Z,14.28
2019-06-26T00:27:47.472Z,14.60
2019-06-26T00:30:14.748Z,13.95
2019-06-26T00:32:44.924Z,14.23
2019-06-26T00:35:12.708Z,13.30
2019-06-26T00:37:54.195Z,13.32
2019-06-26T00:40:21.278Z,14.45
2019-06-26T00:42:48.303Z,15.00
2019-06-26T00:45:15.294Z,15.28
2019-06-26T00:48:05.811Z,14.33
2019-06-26T00:50:32.749Z,14.63
2019-06-26T00:52:59.637Z,14.28
2019-06-26T00:55:26.604Z,13.35
2019-06-26T00:57:53.549Z,12.85
2019-06-26T01:00:24.078Z,13.48
2019-06-26T01:02:50.972Z,13.50
2019-06-26T01:05:22.211Z,14.07
2019-06-26T01:07:49.145Z,14.70
2019-06-26T01:10:16.644Z,13.48
2019-06-26T01:12:43.623Z,14.20
2019-06-26T01:15:18.817Z,14.40
2019-06-26T01:17:45.743Z,13.85
2019-06-26T01:20:12.896Z,14.18
2019-06-26T01:22:39.811Z,15.45
2019-06-26T01:25:08.867Z,13.95
2019-06-26T01:27:35.697Z,15.20
2019-06-26T01:30:05.150Z,14.13
2019-06-26T01:32:33.126Z,13.90
2019-06-26T01:35:00.236Z,14.10
2019-06-26T01:37:27.157Z,14.43
2019-06-26T01:39:54.147Z,14.05
2019-06-26T01:42:20.909Z,14.23
2019-06-26T01:44:49.755Z,14.25
2019-06-26T01:47:16.681Z,14.28
2019-06-26T01:49:54.026Z,13.48
2019-06-26T01:52:20.978Z,12.88
2019-06-26T01:54:47.892Z,13.83
2019-06-26T01:57:24.943Z,13.15
2019-06-26T01:59:51.832Z,13.70
2019-06-26T02:02:18.733Z,13.20
2019-06-26T02:04:47.824Z,15.50
2019-06-26T02:07:14.698Z,14.65
2019-06-26T02:09:42.287Z,14.03
2019-06-26T02:12:09.265Z,14.70
2019-06-26T02:14:36.171Z,15.38
2019-06-26T02:17:03.066Z,14.63
2019-06-26T02:19:29.998Z,14.93
2019-06-26T02:21:56.926Z,15.88
2019-06-26T02:24:23.866Z,14.45
2019-06-26T02:26:50.805Z,14.15
2019-06-26T02:29:17.760Z,14.18
2019-06-26T02:31:44.659Z,13.65
2019-06-26T02:34:11.617Z,14.43
2019-06-26T02:36:38.508Z,13.03
2019-06-26T02:39:06.509Z,13.68
2019-06-26T02:41:37.766Z,15.05
2019-06-26T02:44:04.650Z,13.27
2019-06-26T02:46:32.688Z,14.60
2019-06-26T02:48:59.638Z,13.62
2019-06-26T02:51:26.576Z,14.30
2019-06-26T02:53:53.503Z,13.65
2019-06-26T02:56:20.430Z,13.78
2019-06-26T02:59:01.706Z,14.87
2019-06-26T03:01:28.747Z,12.55
2019-06-26T03:04:04.713Z,13.15
2019-06-26T03:06:31.654Z,14.05
2019-06-26T03:08:58.716Z,14.85
2019-06-26T03:11:25.497Z,12.98
2019-06-26T03:13:52.435Z,14.65
2019-06-26T03:16:19.356Z,12.65
2019-06-26T03:18:46.272Z,13.15
2019-06-26T03:21:13.266Z,13.68
2019-06-26T03:23:40.240Z,13.70
2019-06-26T03:26:07.284Z,11.30
2019-06-26T03:28:34.252Z,14.60
2019-06-26T03:31:01.129Z,13.88
2019-06-26T03:33:28.105Z,13.40
2019-06-26T03:35:56.245Z,12.47
2019-06-26T03:38:23.228Z,13.85
2019-06-26T03:40:50.171Z,13.93
2019-06-26T03:43:17.110Z,12.93
2019-06-26T03:45:44.280Z,15.55
2019-06-26T03:48:11.107Z,13.28
2019-06-26T03:50:38.110Z,13.55
2019-06-26T03:53:05.128Z,13.22
2019-06-26T03:55:32.091Z,13.32
2019-06-26T03:57:59.098Z,12.90
2019-06-26T04:00:32.545Z,12.30
2019-06-26T04:02:59.551Z,13.90
2019-06-26T04:05:26.395Z,11.70
2019-06-26T04:07:57.922Z,13.50
2019-06-26T04:10:24.911Z,13.08
2019-06-26T04:12:51.839Z,13.55
2019-06-26T04:15:18.811Z,12.07
2019-06-26T04:17:46.130Z,12.18
2019-06-26T04:20:13.215Z,12.07
2019-06-26T04:22:40.201Z,13.53
2019-06-26T04:25:07.478Z,14.35
2019-06-26T04:27:34.457Z,15.18
2019-06-26T04:30:10.072Z,14.45
2019-06-26T04:32:38.184Z,14.60
2019-06-26T04:35:05.732Z,11.70
2019-06-26T04:37:32.736Z,14.75
2019-06-26T04:40:00.884Z,10.28
2019-06-26T04:42:33.906Z,13.28
2019-06-26T04:45:00.814Z,13.32
2019-06-26T04:47:27.735Z,11.70
2019-06-26T04:49:54.860Z,9.90
2019-06-26T04:52:21.793Z,12.93
2019-06-26T04:54:48.732Z,14.73
2019-06-26T04:57:19.378Z,13.50
2019-06-26T04:59:46.310Z,13.68
2019-06-26T05:02:13.318Z,12.03
2019-06-26T05:04:40.251Z,12.95
2019-06-26T05:07:07.183Z,14.20
2019-06-26T05:09:34.144Z,13.95
2019-06-26T05:12:01.152Z,13.93
2019-06-26T05:14:28.041Z,13.13
2019-06-26T05:16:54.951Z,13.60
2019-06-26T05:19:21.958Z,12.70
2019-06-26T05:21:50.117Z,12.65
2019-06-26T05:24:17.054Z,12.65
2019-06-26T05:26:43.991Z,13.58
2019-06-26T05:29:10.965Z,12.93
2019-06-26T05:31:37.871Z,13.78
2019-06-26T05:34:04.960Z,11.83
2019-06-26T05:36:31.983Z,13.98
2019-06-26T05:38:58.969Z,13.13
2019-06-26T05:41:26.010Z,13.83
2019-06-26T05:43:52.906Z,12.75
2019-06-26T05:46:30.515Z,12.70
2019-06-26T05:48:48.672Z,12.23
2019-06-26T05:51:15.597Z,13.00
2019-06-26T05:53:42.611Z,13.83
2019-06-26T05:56:09.600Z,11.60
2019-06-26T05:58:41.645Z,13.10
2019-06-26T06:01:08.575Z,12.75
2019-06-26T06:03:35.534Z,12.47
2019-06-26T06:06:02.497Z,12.05
2019-06-26T06:08:29.403Z,12.37
2019-06-26T06:10:58.496Z,11.53
2019-06-26T06:13:25.674Z,10.82
2019-06-26T06:15:52.578Z,12.53
2019-06-26T06:18:26.665Z,11.33
2019-06-26T06:20:53.523Z,11.80
2019-06-26T06:23:22.602Z,12.80
2019-06-26T06:25:49.646Z,12.10
2019-06-26T06:28:16.705Z,12.20
2019-06-26T06:30:43.629Z,11.70
2019-06-26T06:33:10.526Z,12.37
2019-06-26T06:35:37.579Z,12.85
2019-06-26T06:38:04.588Z,12.55
2019-06-26T06:40:44.487Z,10.58
2019-06-26T06:43:12.974Z,11.60
2019-06-26T06:45:39.918Z,10.25
2019-06-26T06:51:29.636Z,12.55
2019-06-26T06:53:56.578Z,11.63
2019-06-26T06:56:24.727Z,11.95
2019-06-26T06:58:51.675Z,11.33
2019-06-26T07:01:20.754Z,11.38
2019-06-26T07:03:54.822Z,11.00
2019-06-26T07:06:21.918Z,10.75
2019-06-26T07:08:49.955Z,10.70
2019-06-26T07:11:16.933Z,9.90
2019-06-26T07:13:43.903Z,9.95
2019-06-26T07:16:10.859Z,10.60
2019-06-26T07:18:37.710Z,10.93
2019-06-26T07:21:04.637Z,9.90
2019-06-26T07:23:37.798Z,8.78
2019-06-26T07:26:04.759Z,8.98
2019-06-26T07:28:32.364Z,9.48
2019-06-26T07:30:59.399Z,10.63
2019-06-26T07:33:26.360Z,9.23
2019-06-26T07:35:53.303Z,8.58
2019-06-26T07:38:20.399Z,9.08
2019-06-26T07:40:47.576Z,9.08
2019-06-26T07:43:16.571Z,9.28
2019-06-26T07:45:43.176Z,9.08
2019-06-26T07:48:10.338Z,8.35
2019-06-26T07:50:37.250Z,8.78
2019-06-26T07:53:04.329Z,8.93
2019-06-26T07:55:40.684Z,7.97
2019-06-26T07:58:07.756Z,7.75
2019-06-26T08:00:34.812Z,8.40
2019-06-26T08:03:04.903Z,8.75
2019-06-26T08:05:31.817Z,7.97
2019-06-26T08:07:58.725Z,8.08
2019-06-26T08:10:25.767Z,7.08
2019-06-26T08:12:52.819Z,7.12
2019-06-26T08:15:19.839Z,6.47
2019-06-26T08:17:59.866Z,6.42
2019-06-26T08:20:16.051Z,8.30
2019-06-26T08:22:43.015Z,7.53
2019-06-26T08:25:10.931Z,6.78
2019-06-26T08:27:37.875Z,7.78
2019-06-26T08:30:06.699Z,8.55
2019-06-26T08:32:33.708Z,8.15
2019-06-26T08:35:00.632Z,7.67
2019-06-26T08:37:27.623Z,7.35
2019-06-26T08:39:54.549Z,7.30
2019-06-26T08:42:22.536Z,7.15
2019-06-26T08:44:49.486Z,7.37
2019-06-26T08:47:16.399Z,8.20
2019-06-26T08:49:43.340Z,8.48
2019-06-26T08:52:10.241Z,7.92
2019-06-26T08:54:37.303Z,8.10
2019-06-26T08:57:04.277Z,7.58
2019-06-26T08:59:31.221Z,7.17
2019-06-26T09:01:58.195Z,7.22
2019-06-26T09:04:25.299Z,6.33
2019-06-26T09:06:52.514Z,7.40
2019-06-26T09:09:19.494Z,6.60
2019-06-26T09:11:46.504Z,6.35
2019-06-26T09:14:13.667Z,7.87
2019-06-26T09:16:40.560Z,6.78
2019-06-26T09:19:07.512Z,6.15
2019-06-26T09:21:35.641Z,7.20
2019-06-26T09:24:02.627Z,5.80
2019-06-26T09:26:29.639Z,6.50
2019-06-26T09:28:56.640Z,5.85
2019-06-26T09:31:23.709Z,5.78
2019-06-26T09:33:50.688Z,6.37
2019-06-26T09:36:17.569Z,5.70
2019-06-26T09:38:44.370Z,5.83
2019-06-26T09:41:11.361Z,6.70
2019-06-26T09:43:38.378Z,5.30
2019-06-26T09:46:05.564Z,4.35
2019-06-26T09:48:32.506Z,5.30
2019-06-26T09:50:59.488Z,5.60
2019-06-26T09:53:26.441Z,5.30
2019-06-26T09:55:53.376Z,5.33
2019-06-26T09:58:20.364Z,4.95
2019-06-26T10:00:47.336Z,5.45
2019-06-26T10:03:14.355Z,5.65
2019-06-26T10:05:42.909Z,5.65
2019-06-26T10:08:09.883Z,5.53
2019-06-26T10:10:36.843Z,4.83
2019-06-26T10:13:03.887Z,5.08
2019-06-26T10:15:30.844Z,5.35
2019-06-26T10:17:57.899Z,5.60
2019-06-26T10:20:24.805Z,5.92
2019-06-26T10:22:51.834Z,5.22
2019-06-26T10:25:20.581Z,5.37
2019-06-26T10:27:47.586Z,4.62
2019-06-26T10:30:15.728Z,5.30
2019-06-26T10:32:42.626Z,5.37
2019-06-26T10:35:09.784Z,5.10
2019-06-26T10:37:36.690Z,4.75
2019-06-26T10:40:04.066Z,5.33
2019-06-26T10:42:31.012Z,5.00
2019-06-26T10:44:57.922Z,5.33
2019-06-26T10:47:24.866Z,4.22
2019-06-26T10:49:52.006Z,4.80
2019-06-26T10:52:18.951Z,5.08
2019-06-26T10:54:45.889Z,4.80
2019-06-26T10:57:12.891Z,5.03
2019-06-26T10:59:39.794Z,5.50
2019-06-26T11:02:07.643Z,5.55
2019-06-26T11:04:34.534Z,4.72
2019-06-26T11:07:01.482Z,4.92
2019-06-26T11:09:28.486Z,5.17
2019-06-26T11:11:55.437Z,4.97
2019-06-26T11:14:22.388Z,4.30
2019-06-26T11:16:49.421Z,4.53
2019-06-26T11:19:16.294Z,4.53
2019-06-26T11:21:43.335Z,5.00
2019-06-26T11:24:10.334Z,4.33
2019-06-26T11:26:37.341Z,4.03
2019-06-26T11:29:04.269Z,4.53
2019-06-26T11:31:31.270Z,4.08
2019-06-26T11:33:58.123Z,4.30
2019-06-26T11:36:25.175Z,4.25
2019-06-26T11:38:52.216Z,4.28
2019-06-26T11:41:20.118Z,3.90
2019-06-26T11:43:48.060Z,3.60
2019-06-26T11:46:19.121Z,4.20
2019-06-26T11:48:46.092Z,3.85
2019-06-26T11:51:15.341Z,4.08
2019-06-26T11:53:43.851Z,3.98
2019-06-26T11:56:11.167Z,4.00
2019-06-26T11:59:21.223Z,4.45
2019-06-26T12:01:48.199Z,4.20
2019-06-26T12:04:24.694Z,4.65
2019-06-26T12:06:51.689Z,3.85
2019-06-26T12:09:18.805Z,4.10
2019-06-26T12:11:45.763Z,3.83
2019-06-26T12:14:12.790Z,3.45
2019-06-26T12:16:39.923Z,3.98
2019-06-26T12:19:06.919Z,4.10
2019-06-26T12:22:00.055Z,4.15
2019-06-26T12:24:27.128Z,3.70
2019-06-26T12:27:00.313Z,4.62
2019-06-26T12:29:27.256Z,4.30
2019-06-26T12:31:54.267Z,4.25
2019-06-26T12:34:56.979Z,4.90
2019-06-26T12:39:52.514Z,4.95
2019-06-26T12:42:19.625Z,4.40
2019-06-26T12:44:46.682Z,4.42
2019-06-26T12:47:13.599Z,4.92
2019-06-26T12:49:40.671Z,4.10
2019-06-26T12:52:07.707Z,4.95
2019-06-26T12:54:34.752Z,4.50
2019-06-26T12:57:01.725Z,5.03
2019-06-26T12:59:28.670Z,4.60
2019-06-26T13:01:55.693Z,4.50
2019-06-26T13:04:22.680Z,4.42
2019-06-26T13:06:49.629Z,4.53
2019-06-26T13:09:16.604Z,4.55
2019-06-26T13:11:43.653Z,4.95
2019-06-26T13:14:14.620Z,4.58
2019-06-26T13:16:41.648Z,5.03
2019-06-26T13:19:08.668Z,4.75
2019-06-26T13:21:35.588Z,4.10
2019-06-26T13:24:08.479Z,4.90
2019-06-26T13:26:35.689Z,4.10
2019-06-26T13:29:02.701Z,4.40
2019-06-26T13:31:29.698Z,4.40
2019-06-26T13:33:56.666Z,4.28
2019-06-26T13:36:23.652Z,4.40
2019-06-26T13:38:56.613Z,4.12
2019-06-26T13:41:23.719Z,3.87
2019-06-26T13:43:50.700Z,3.83
2019-06-26T13:46:17.718Z,4.37
2019-06-26T13:48:55.301Z,3.95
2019-06-26T13:51:22.386Z,3.90
2019-06-26T13:53:49.380Z,4.12
2019-06-26T13:56:16.378Z,4.47
2019-06-26T13:58:43.434Z,4.22
2019-06-26T14:01:10.526Z,4.53
2019-06-26T14:03:37.613Z,4.42
2019-06-26T14:06:17.717Z,4.20
2019-06-26T14:08:44.777Z,4.92
2019-06-26T14:11:12.071Z,4.60
2019-06-26T14:13:41.755Z,4.00
2019-06-26T14:16:45.440Z,4.92
2019-06-26T14:19:12.496Z,4.55
2019-06-26T14:21:39.501Z,4.58
2019-06-26T14:24:06.635Z,4.65
2019-06-26T14:26:33.733Z,4.65
2019-06-26T14:29:20.837Z,4.53
2019-06-26T14:31:48.907Z,4.65
2019-06-26T14:34:16.015Z,5.03
2019-06-26T14:36:43.018Z,4.87
2019-06-26T14:39:10.135Z,5.17
2019-06-26T14:41:39.219Z,4.75
2019-06-26T14:44:05.932Z,4.80
2019-06-26T14:46:32.924Z,5.12
2019-06-26T14:49:01.162Z,4.20
2019-06-26T14:51:41.200Z,4.72
2019-06-26T14:53:57.053Z,5.03
2019-06-26T14:56:25.408Z,4.60
2019-06-26T14:58:53.378Z,4.95
2019-06-26T15:01:20.545Z,5.33
2019-06-26T15:03:47.566Z,4.40
2019-06-26T15:06:16.763Z,4.87
2019-06-26T15:08:43.395Z,4.50
2019-06-26T15:11:11.492Z,5.00
2019-06-26T15:13:46.313Z,5.35
2019-06-26T15:16:13.365Z,4.47
2019-06-26T15:18:40.330Z,4.42
2019-06-26T15:21:07.322Z,4.55
2019-06-26T15:23:34.317Z,4.80
2019-06-26T15:26:02.407Z,4.92
2019-06-26T15:28:29.362Z,4.60
2019-06-26T15:30:56.429Z,4.75
2019-06-26T15:33:23.460Z,4.42
2019-06-26T15:35:50.643Z,5.08
2019-06-26T15:38:50.914Z,5.03
2019-06-26T15:41:17.869Z,4.75
2019-06-26T15:43:46.174Z,4.30
2019-06-26T15:46:13.245Z,5.10
2019-06-26T15:48:40.197Z,4.78
2019-06-26T15:51:07.171Z,4.62
2019-06-26T15:53:34.160Z,4.65
2019-06-26T15:56:01.130Z,5.22
2019-06-26T15:58:28.125Z,5.12
2019-06-26T16:01:07.326Z,4.78
2019-06-26T16:03:34.384Z,4.92
2019-06-26T16:09:18.511Z,5.12
2019-06-26T16:11:45.457Z,5.30
2019-06-26T16:14:23.414Z,5.10
2019-06-26T16:16:52.324Z,5.10
2019-06-26T16:19:21.071Z,4.60
2019-06-26T16:21:48.023Z,5.33
2019-06-26T16:24:14.995Z,5.50
2019-06-26T16:30:29.279Z,5.30
2019-06-26T16:32:57.052Z,5.05
2019-06-26T16:35:24.531Z,5.83
2019-06-26T16:37:51.596Z,5.60
2019-06-26T16:40:18.587Z,5.20
2019-06-26T16:42:45.547Z,5.92
2019-06-26T16:45:12.693Z,5.65
2019-06-26T16:47:51.502Z,5.67
2019-06-26T16:50:18.733Z,5.37
2019-06-26T16:52:49.647Z,5.45
2019-06-26T16:55:14.493Z,5.45
2019-06-26T16:57:41.507Z,6.08
2019-06-26T17:00:10.224Z,6.05
2019-06-26T17:02:38.572Z,6.58
2019-06-26T17:05:05.692Z,5.12
2019-06-26T17:07:32.863Z,5.90
2019-06-26T17:09:59.935Z,5.90
2019-06-26T17:12:26.923Z,5.78
2019-06-26T17:14:53.908Z,5.17
2019-06-26T17:17:20.857Z,5.40
2019-06-26T17:19:47.821Z,5.58
2019-06-26T17:22:14.764Z,5.22
2019-06-26T17:24:41.759Z,5.85
2019-06-26T17:27:08.769Z,6.20
2019-06-26T17:29:35.772Z,5.83
2019-06-26T17:32:02.815Z,5.95
2019-06-26T17:34:29.937Z,5.70
2019-06-26T17:36:56.981Z,5.45
2019-06-26T17:39:24.007Z,5.75
2019-06-26T17:41:50.961Z,5.62
2019-06-26T17:44:17.951Z,5.87
2019-06-26T17:46:44.967Z,5.80
2019-06-26T17:49:11.970Z,5.45
2019-06-26T17:51:38.947Z,6.05
2019-06-26T17:54:05.976Z,6.20
2019-06-26T17:56:32.955Z,6.95
2019-06-26T17:59:04.977Z,6.17
2019-06-26T18:01:31.975Z,5.97
2019-06-26T18:09:56.812Z,6.67
2019-06-26T18:12:24.031Z,6.22
2019-06-26T18:14:50.984Z,7.03
2019-06-26T18:17:22.395Z,7.42
2019-06-26T18:19:49.784Z,7.30
2019-06-26T18:22:30.232Z,6.35
2019-06-26T18:24:57.196Z,7.78
2019-06-26T18:27:24.184Z,7.12
2019-06-26T18:29:51.127Z,7.30
2019-06-26T18:32:18.084Z,7.53
2019-06-26T18:34:56.769Z,7.28
2019-06-26T18:37:23.839Z,7.25
2019-06-26T18:39:50.882Z,7.28
2019-06-26T18:42:17.989Z,7.47
2019-06-26T18:44:45.079Z,7.45
2019-06-26T18:47:13.200Z,7.22
2019-06-26T18:49:40.205Z,7.85
2019-06-26T18:52:07.962Z,7.58
2019-06-26T18:54:35.985Z,7.72
2019-06-26T18:57:02.972Z,8.00
2019-06-26T18:59:34.046Z,8.05
2019-06-26T19:02:01.052Z,7.90
2019-06-26T19:04:27.990Z,7.22
2019-06-26T19:07:04.055Z,8.35
2019-06-26T19:09:32.075Z,8.03
2019-06-26T19:11:59.087Z,8.00
2019-06-26T19:14:26.343Z,8.53
2019-06-26T19:16:53.519Z,8.25
2019-06-26T19:19:38.551Z,8.20
2019-06-26T19:22:05.488Z,7.75
2019-06-26T19:24:32.374Z,8.95
2019-06-26T19:26:59.366Z,8.15
2019-06-26T19:29:26.314Z,8.50
2019-06-26T19:31:53.265Z,8.25
2019-06-26T19:34:20.237Z,8.25
2019-06-26T19:36:50.525Z,8.60
2019-06-26T19:39:20.563Z,7.92
2019-06-26T19:41:47.259Z,9.00
2019-06-26T19:44:16.460Z,8.70
2019-06-26T19:46:43.593Z,8.63
2019-06-26T19:49:10.516Z,8.40
2019-06-26T19:51:37.459Z,8.75
2019-06-26T19:54:04.727Z,8.28
2019-06-26T19:56:31.839Z,10.08
2019-06-26T19:59:35.924Z,8.98
2019-06-26T20:02:02.939Z,9.43
2019-06-26T20:04:29.841Z,10.68
2019-06-26T20:06:56.748Z,10.93
2019-06-26T20:09:24.866Z,9.78
2019-06-26T20:11:51.805Z,10.80
2019-06-26T20:14:18.760Z,10.58
2019-06-26T20:16:45.798Z,9.40
2019-06-26T20:19:12.716Z,10.60
2019-06-26T20:21:39.667Z,10.65
2019-06-26T20:24:06.561Z,10.60
2019-06-26T20:26:33.450Z,9.90
2019-06-26T20:29:00.395Z,10.20
2019-06-26T20:31:27.390Z,10.80
2019-06-26T20:33:54.333Z,11.20
2019-06-26T20:36:21.206Z,11.00
2019-06-26T20:38:48.157Z,10.95
2019-06-26T20:41:15.163Z,9.88
2019-06-26T20:43:42.086Z,9.40
2019-06-26T20:46:09.084Z,8.23
2019-06-26T20:48:36.226Z,10.08
2019-06-26T20:51:14.123Z,10.40
2019-06-26T20:53:41.079Z,10.35
2019-06-26T20:56:08.052Z,10.28
2019-06-26T20:58:35.045Z,9.50
2019-06-26T21:01:01.997Z,9.55
2019-06-26T21:03:28.973Z,10.35
2019-06-26T21:05:55.922Z,10.10
2019-06-26T21:08:22.757Z,10.20
2019-06-26T21:10:49.782Z,10.08
2019-06-26T21:13:23.629Z,10.15
2019-06-26T21:15:52.885Z,10.75
2019-06-26T21:18:19.301Z,10.75
2019-06-26T21:20:46.339Z,11.00
2019-06-26T21:23:18.857Z,11.15
2019-06-26T21:25:41.983Z,10.32
2019-06-26T21:28:08.894Z,9.98
2019-06-26T21:30:40.208Z,10.70
2019-06-26T21:33:08.240Z,10.58
2019-06-26T21:35:35.039Z,11.08
2019-06-26T21:38:02.079Z,10.53
2019-06-26T21:40:31.057Z,10.68
2019-06-26T21:42:58.093Z,10.15
2019-06-26T21:45:25.091Z,10.32
2019-06-26T21:47:51.923Z,11.20
2019-06-26T21:50:19.170Z,10.58
2019-06-26T21:52:46.314Z,10.68
2019-06-26T21:55:14.178Z,10.13
2019-06-26T21:57:59.432Z,9.90
2019-06-26T22:00:46.428Z,9.90
2019-06-26T22:03:31.600Z,10.00
2019-06-26T22:06:00.448Z,10.43
2019-06-26T22:08:29.174Z,10.20
2019-06-26T22:10:58.027Z,10.75
2019-06-26T22:13:25.002Z,10.78
2019-06-26T22:15:53.140Z,10.82
2019-06-26T22:18:20.149Z,10.50
2019-06-26T22:20:46.989Z,11.33
2019-06-26T22:23:14.013Z,11.63
2019-06-26T22:25:50.804Z,10.75
2019-06-26T22:28:10.147Z,11.05
2019-06-26T22:30:37.103Z,10.88
2019-06-26T22:33:04.076Z,11.10
2019-06-26T22:35:30.988Z,11.57
2019-06-26T22:37:57.889Z,11.78
2019-06-26T22:40:24.879Z,10.43
2019-06-26T22:42:51.873Z,10.90
2019-06-26T22:45:18.827Z,9.85
2019-06-26T22:47:45.758Z,12.03
2019-06-26T22:50:13.014Z,11.35
2019-06-26T22:52:39.946Z,11.80
2019-06-26T22:55:07.074Z,11.65
2019-06-26T22:57:34.007Z,11.43
2019-06-26T23:00:03.912Z,10.88
2019-06-26T23:02:30.958Z,11.40
2019-06-26T23:05:04.779Z,10.55
2019-06-26T23:07:31.658Z,11.70
2019-06-26T23:09:58.646Z,11.33
2019-06-26T23:12:25.601Z,12.25
2019-06-26T23:14:52.524Z,13.13
2019-06-26T23:17:19.474Z,13.83
2019-06-26T23:19:46.373Z,14.13
2019-06-26T23:22:13.290Z,13.48
2019-06-26T23:28:16.083Z,13.48
2019-06-26T23:30:43.030Z,11.73
2019-06-26T23:33:09.929Z,14.87
2019-06-26T23:35:36.901Z,13.98
2019-06-26T23:38:03.946Z,13.20
2019-06-26T23:40:30.856Z,12.55
2019-06-26T23:42:59.650Z,13.18
2019-06-26T23:45:26.571Z,11.53
2019-06-26T23:47:53.516Z,13.55
2019-06-26T23:50:21.494Z,13.83
2019-06-26T23:52:48.436Z,13.35
2019-06-26T23:55:15.376Z,14.33
2019-06-26T23:57:57.877Z,13.70
